createdAt,value
2023-03-21T00:01:16.150Z,68.30
2023-03-21T00:03:48.062Z,68.50
2023-03-21T00:06:15.413Z,68.50
2023-03-21T00:08:42.851Z,68.60
2023-03-21T00:11:15.400Z,68.50
2023-03-21T00:14:02.510Z,69.30
2023-03-21T00:16:32.008Z,68.60
2023-03-21T00:19:24.983Z,68.70
2023-03-21T00:22:07.140Z,68.90
2023-03-21T00:24:43.729Z,68.90
2023-03-21T00:27:39.442Z,68.90
2023-03-21T00:30:12.201Z,69.00
2023-03-21T00:32:49.211Z,69.10
2023-03-21T00:36:02.515Z,68.80
2023-03-21T00:38:29.642Z,68.90
2023-03-21T00:41:25.920Z,68.90
2023-03-21T00:43:58.916Z,68.90
2023-03-21T00:46:30.118Z,69.00
2023-03-21T00:49:03.688Z,69.20
2023-03-21T00:51:51.445Z,69.20
2023-03-21T00:54:21.239Z,69.20
2023-03-21T00:57:06.626Z,69.20
2023-03-21T00:59:33.539Z,69.20
2023-03-21T01:02:23.310Z,69.10
2023-03-21T01:04:50.627Z,69.20
2023-03-21T01:07:36.160Z,69.10
2023-03-21T01:10:03.533Z,69.10
2023-03-21T01:12:30.907Z,69.20
2023-03-21T01:15:00.837Z,69.20
2023-03-21T01:17:27.796Z,69.10
2023-03-21T01:19:54.765Z,69.10
2023-03-21T01:22:21.799Z,69.10
2023-03-21T01:25:05.719Z,69.00
2023-03-21T01:27:35.910Z,69.10
2023-03-21T01:30:06.253Z,69.00
2023-03-21T01:32:35.734Z,69.20
2023-03-21T01:35:02.942Z,69.00
2023-03-21T01:37:30.576Z,69.00
2023-03-21T01:39:57.581Z,69.20
2023-03-21T01:42:24.756Z,69.20
2023-03-21T01:44:58.116Z,69.10
2023-03-21T01:47:26.161Z,69.20
2023-03-21T01:50:12.011Z,69.00
2023-03-21T01:52:41.852Z,69.00
2023-03-21T01:55:23.864Z,69.00
2023-03-21T01:58:05.330Z,69.00
2023-03-21T02:00:52.003Z,69.10
2023-03-21T02:03:29.778Z,69.10
2023-03-21T02:06:30.500Z,69.00
2023-03-21T02:09:01.221Z,69.00
2023-03-21T02:11:34.290Z,69.00
2023-03-21T02:14:06.726Z,68.90
2023-03-21T02:16:47.676Z,68.80
2023-03-21T02:19:31.964Z,68.90
2023-03-21T02:22:33.749Z,68.90
2023-03-21T02:25:31.873Z,68.80
2023-03-21T02:28:10.121Z,68.70
2023-03-21T02:31:01.693Z,68.70
2023-03-21T02:33:59.707Z,68.70
2023-03-21T02:36:48.564Z,68.60
2023-03-21T02:39:30.653Z,68.50
2023-03-21T02:42:39.406Z,68.60
2023-03-21T02:45:19.308Z,68.50
2023-03-21T02:47:53.234Z,68.70
2023-03-21T02:50:30.342Z,68.80
2023-03-21T02:52:58.784Z,68.90
2023-03-21T02:55:28.268Z,68.80
2023-03-21T02:58:13.487Z,68.90
2023-03-21T03:00:42.967Z,68.80
2023-03-21T03:03:18.013Z,68.60
2023-03-21T03:05:56.098Z,68.70
2023-03-21T03:09:01.445Z,68.70
2023-03-21T03:11:35.789Z,68.70
2023-03-21T03:15:00.225Z,68.70
2023-03-21T03:17:37.385Z,68.70
2023-03-21T03:20:17.443Z,68.70
2023-03-21T03:23:05.791Z,68.80
2023-03-21T03:26:12.309Z,68.90
2023-03-21T03:29:04.371Z,68.80
2023-03-21T03:31:43.497Z,68.80
2023-03-21T03:34:14.283Z,68.90
2023-03-21T03:36:47.715Z,68.80
2023-03-21T03:39:33.557Z,68.70
2023-03-21T03:42:25.377Z,68.70
2023-03-21T03:44:55.259Z,68.70
2023-03-21T03:47:32.708Z,68.60
2023-03-21T03:50:09.428Z,68.60
2023-03-21T03:52:53.592Z,68.60
2023-03-21T03:55:23.857Z,68.50
2023-03-21T03:57:51.026Z,68.40
2023-03-21T04:00:18.824Z,68.20
2023-03-21T04:02:46.165Z,68.20
2023-03-21T04:05:13.728Z,68.10
2023-03-21T04:07:41.412Z,68.10
2023-03-21T04:10:08.848Z,68.00
2023-03-21T04:12:35.911Z,68.10
2023-03-21T04:15:10.036Z,68.00
2023-03-21T04:17:56.496Z,68.00
2023-03-21T04:20:36.233Z,68.10
2023-03-21T04:23:04.273Z,68.10
2023-03-21T04:25:34.764Z,68.00
2023-03-21T04:28:02.536Z,68.10
2023-03-21T04:30:29.598Z,68.00
2023-03-21T04:32:56.934Z,67.90
2023-03-21T04:35:37.058Z,68.00
2023-03-21T04:38:05.210Z,68.00
2023-03-21T04:40:32.183Z,67.90
2023-03-21T04:43:01.304Z,67.90
2023-03-21T04:45:43.849Z,67.90
2023-03-21T04:48:10.922Z,67.90
2023-03-21T04:50:47.094Z,68.00
2023-03-21T04:53:14.251Z,68.00
2023-03-21T04:55:41.243Z,68.10
2023-03-21T04:58:26.843Z,68.00
2023-03-21T05:00:53.943Z,68.10
2023-03-21T05:03:21.911Z,68.20
2023-03-21T05:05:51.576Z,68.30
2023-03-21T05:08:24.198Z,68.40
2023-03-21T05:10:51.302Z,68.40
2023-03-21T05:13:18.275Z,68.50
2023-03-21T05:15:45.186Z,68.50
2023-03-21T05:18:12.249Z,68.50
2023-03-21T05:20:43.258Z,68.50
2023-03-21T05:23:11.745Z,68.60
2023-03-21T05:25:40.382Z,68.60
2023-03-21T05:28:08.142Z,68.60
2023-03-21T05:30:35.298Z,68.70
2023-03-21T05:33:20.806Z,68.60
2023-03-21T05:35:51.424Z,68.80
2023-03-21T05:38:37.272Z,69.10
2023-03-21T05:41:04.506Z,69.30
2023-03-21T05:43:31.493Z,69.40
2023-03-21T05:46:04.638Z,69.60
2023-03-21T05:48:35.034Z,69.70
2023-03-21T05:51:20.598Z,69.80
2023-03-21T05:53:48.568Z,69.90
2023-03-21T05:56:15.606Z,70.00
2023-03-21T05:58:42.673Z,70.00
2023-03-21T06:01:09.753Z,70.10
2023-03-21T06:03:37.021Z,70.10
2023-03-21T06:06:04.157Z,70.10
2023-03-21T06:08:33.805Z,70.10
2023-03-21T06:11:42.177Z,70.20
2023-03-21T06:14:09.205Z,70.30
2023-03-21T06:16:36.332Z,70.20
2023-03-21T06:19:03.312Z,70.30
2023-03-21T06:21:32.905Z,70.30
2023-03-21T06:23:59.933Z,70.30
2023-03-21T06:26:26.903Z,70.30
2023-03-21T06:28:54.390Z,70.50
2023-03-21T06:31:22.707Z,70.60
2023-03-21T06:33:50.221Z,70.70
2023-03-21T06:36:17.728Z,70.80
2023-03-21T06:38:48.726Z,71.00
2023-03-21T06:41:17.103Z,71.00
2023-03-21T06:43:45.018Z,71.10
2023-03-21T06:46:12.077Z,71.20
2023-03-21T06:48:44.443Z,71.20
2023-03-21T06:51:15.429Z,71.40
2023-03-21T06:53:42.765Z,71.50
2023-03-21T06:56:10.935Z,71.40
2023-03-21T06:58:38.325Z,71.40
2023-03-21T07:01:05.838Z,71.40
2023-03-21T07:03:33.055Z,71.40
2023-03-21T07:06:13.830Z,71.50
2023-03-21T07:08:41.565Z,71.70
2023-03-21T07:11:09.178Z,71.60
2023-03-21T07:13:36.241Z,71.50
2023-03-21T07:16:03.397Z,71.50
2023-03-21T07:18:32.994Z,71.60
2023-03-21T07:21:00.018Z,71.60
2023-03-21T07:23:27.201Z,71.50
2023-03-21T07:25:55.177Z,71.60
2023-03-21T07:28:23.564Z,71.60
2023-03-21T07:31:02.711Z,71.50
2023-03-21T07:33:30.519Z,71.30
2023-03-21T07:36:00.645Z,71.20
2023-03-21T07:38:28.246Z,71.80
2023-03-21T07:40:55.355Z,70.90
2023-03-21T07:43:22.434Z,70.70
2023-03-21T07:46:04.818Z,70.40
2023-03-21T07:48:31.975Z,70.30
2023-03-21T07:50:58.949Z,70.20
2023-03-21T07:53:48.449Z,70.10
2023-03-21T07:56:16.187Z,70.10
2023-03-21T07:58:43.212Z,70.20
2023-03-21T08:01:10.213Z,70.10
2023-03-21T08:03:55.602Z,70.00
2023-03-21T08:06:23.425Z,70.10
2023-03-21T08:08:50.571Z,70.10
2023-03-21T08:11:18.182Z,70.10
2023-03-21T08:13:45.213Z,70.10
2023-03-21T08:16:30.787Z,70.00
2023-03-21T08:18:57.846Z,70.10
2023-03-21T08:21:43.515Z,70.10
2023-03-21T08:24:10.464Z,70.10
2023-03-21T08:26:56.496Z,70.00
2023-03-21T08:29:25.186Z,70.00
2023-03-21T08:31:52.481Z,70.10
2023-03-21T08:34:19.664Z,70.10
2023-03-21T08:36:58.878Z,70.20
2023-03-21T08:39:26.126Z,70.10
2023-03-21T08:41:53.498Z,70.10
2023-03-21T08:44:22.136Z,70.00
2023-03-21T08:46:49.084Z,70.20
2023-03-21T08:49:16.349Z,70.10
2023-03-21T08:52:02.130Z,70.10
2023-03-21T08:54:29.099Z,70.20
2023-03-21T08:57:04.830Z,70.10
2023-03-21T08:59:31.855Z,70.00
2023-03-21T09:01:58.973Z,70.10
2023-03-21T09:04:30.652Z,70.00
2023-03-21T09:06:58.060Z,70.10
2023-03-21T09:09:31.051Z,70.10
2023-03-21T09:11:58.192Z,70.10
2023-03-21T09:14:29.138Z,70.00
2023-03-21T09:17:15.092Z,70.00
2023-03-21T09:19:43.691Z,69.80
2023-03-21T09:22:14.386Z,69.80
2023-03-21T09:24:47.971Z,69.70
2023-03-21T09:27:17.610Z,69.90
2023-03-21T09:29:45.092Z,69.80
2023-03-21T09:32:13.451Z,69.70
2023-03-21T09:34:41.318Z,69.70
2023-03-21T09:37:11.481Z,69.40
2023-03-21T09:39:39.218Z,69.30
2023-03-21T09:42:09.404Z,69.20
2023-03-21T09:45:01.429Z,69.10
2023-03-21T09:47:37.811Z,69.00
2023-03-21T09:50:20.426Z,68.90
2023-03-21T09:53:14.012Z,68.60
2023-03-21T09:55:42.663Z,68.50
2023-03-21T09:58:21.876Z,68.40
2023-03-21T10:01:27.259Z,68.00
2023-03-21T10:04:01.153Z,68.10
2023-03-21T10:06:59.136Z,67.90
2023-03-21T10:09:28.313Z,67.90
2023-03-21T10:12:24.798Z,67.50
2023-03-21T10:14:57.081Z,67.70
2023-03-21T10:17:41.065Z,67.10
2023-03-21T10:20:31.742Z,66.60
2023-03-21T10:23:01.225Z,68.10
2023-03-21T10:25:52.855Z,67.30
2023-03-21T10:28:42.327Z,67.20
2023-03-21T10:31:31.376Z,66.90
2023-03-21T10:34:06.211Z,67.20
2023-03-21T10:36:33.898Z,67.30
2023-03-21T10:39:27.383Z,66.70
2023-03-21T10:42:24.774Z,67.00
2023-03-21T10:44:54.450Z,67.10
2023-03-21T10:47:33.787Z,67.20
2023-03-21T10:50:13.021Z,67.30
2023-03-21T10:53:00.822Z,67.20
2023-03-21T10:55:32.125Z,66.40
2023-03-21T10:58:27.369Z,67.00
2023-03-21T11:00:58.408Z,67.00
2023-03-21T11:03:47.027Z,66.90
2023-03-21T11:06:28.682Z,66.70
2023-03-21T11:09:21.757Z,66.20
2023-03-21T11:12:10.124Z,66.40
2023-03-21T11:14:41.798Z,66.00
2023-03-21T11:17:34.227Z,65.90
2023-03-21T11:20:11.354Z,65.60
2023-03-21T11:22:44.007Z,66.00
2023-03-21T11:25:41.507Z,65.10
2023-03-21T11:28:36.097Z,65.30
2023-03-21T11:31:04.609Z,65.50
2023-03-21T11:33:57.105Z,65.10
2023-03-21T11:36:24.217Z,65.30
2023-03-21T11:38:54.461Z,65.30
2023-03-21T11:41:34.839Z,65.40
2023-03-21T11:44:03.434Z,65.30
2023-03-21T11:46:49.225Z,65.00
2023-03-21T11:49:16.256Z,64.80
2023-03-21T11:52:23.638Z,64.90
2023-03-21T11:55:10.438Z,64.50
2023-03-21T11:58:05.332Z,64.50
2023-03-21T12:01:10.217Z,64.40
2023-03-21T12:04:07.873Z,64.10
2023-03-21T12:06:56.258Z,64.90
2023-03-21T12:09:41.680Z,64.60
2023-03-21T12:12:38.844Z,65.00
2023-03-21T12:15:13.568Z,64.70
2023-03-21T12:17:53.864Z,65.20
2023-03-21T12:20:37.757Z,65.00
2023-03-21T12:23:24.112Z,65.00
2023-03-21T12:26:32.970Z,64.50
2023-03-21T12:29:30.156Z,64.30
2023-03-21T12:31:57.058Z,64.20
2023-03-21T12:34:31.643Z,64.20
2023-03-21T12:37:17.272Z,64.20
2023-03-21T12:39:48.140Z,64.40
2023-03-21T12:42:45.013Z,64.30
2023-03-21T12:45:46.712Z,64.20
2023-03-21T12:48:58.343Z,64.20
2023-03-21T12:51:32.730Z,64.00
2023-03-21T12:54:27.096Z,64.20
2023-03-21T12:57:56.472Z,64.30
2023-03-21T13:00:33.431Z,64.00
2023-03-21T13:03:04.117Z,64.20
2023-03-21T13:05:44.865Z,64.30
2023-03-21T13:08:24.196Z,64.30
2023-03-21T13:11:17.641Z,64.30
2023-03-21T13:14:16.949Z,64.20
2023-03-21T13:16:56.140Z,64.50
2023-03-21T13:19:41.273Z,64.30
2023-03-21T13:22:20.482Z,64.10
2023-03-21T13:25:16.911Z,64.20
2023-03-21T13:27:47.315Z,63.70
2023-03-21T13:30:22.684Z,63.90
2023-03-21T13:32:51.638Z,63.40
2023-03-21T13:35:27.467Z,63.40
2023-03-21T13:38:03.956Z,63.40
2023-03-21T13:40:51.043Z,63.80
2023-03-21T13:43:40.036Z,63.60
2023-03-21T13:46:13.415Z,63.50
2023-03-21T13:49:09.299Z,63.40
2023-03-21T13:51:53.989Z,63.10
2023-03-21T13:54:57.310Z,63.50
2023-03-21T13:57:33.374Z,63.40
2023-03-21T14:00:31.627Z,63.00
2023-03-21T14:03:13.745Z,63.20
2023-03-21T14:05:41.897Z,63.30
2023-03-21T14:08:27.772Z,63.20
2023-03-21T14:11:06.619Z,63.50
2023-03-21T14:13:54.342Z,63.40
2023-03-21T14:16:25.306Z,63.60
2023-03-21T14:19:12.018Z,63.50
2023-03-21T14:21:48.147Z,63.90
2023-03-21T14:24:17.666Z,63.40
2023-03-21T14:27:06.206Z,63.50
2023-03-21T14:29:35.345Z,63.50
2023-03-21T14:32:03.536Z,63.70
2023-03-21T14:34:35.170Z,63.70
2023-03-21T14:37:02.474Z,63.70
2023-03-21T14:40:09.178Z,63.70
2023-03-21T14:42:38.064Z,64.20
2023-03-21T14:45:29.477Z,64.30
2023-03-21T14:48:16.515Z,64.50
2023-03-21T14:50:46.482Z,65.00
2023-03-21T14:53:28.933Z,65.00
2023-03-21T14:56:08.924Z,65.40
2023-03-21T14:58:54.982Z,65.50
2023-03-21T15:01:32.629Z,65.40
2023-03-21T15:04:18.737Z,65.50
2023-03-21T15:07:02.119Z,65.40
2023-03-21T15:09:55.555Z,65.80
2023-03-21T15:12:22.971Z,66.20
2023-03-21T15:14:50.396Z,66.20
2023-03-21T15:17:17.594Z,66.00
2023-03-21T15:19:44.650Z,66.20
2023-03-21T15:22:34.655Z,66.30
2023-03-21T15:25:06.933Z,66.40
2023-03-21T15:27:40.896Z,66.50
2023-03-21T15:30:28.064Z,66.50
2023-03-21T15:32:56.769Z,67.00
2023-03-21T15:35:33.730Z,67.10
2023-03-21T15:38:01.093Z,67.40
2023-03-21T15:40:31.842Z,67.40
2023-03-21T15:43:16.294Z,67.60
2023-03-21T15:45:49.285Z,67.60
2023-03-21T15:48:35.199Z,67.70
2023-03-21T15:51:05.443Z,67.80
2023-03-21T15:53:34.887Z,67.90
2023-03-21T15:56:03.275Z,68.00
2023-03-21T15:58:36.690Z,68.20
2023-03-21T16:01:12.735Z,68.40
2023-03-21T16:03:46.130Z,68.50
2023-03-21T16:06:14.511Z,68.80
2023-03-21T16:09:09.698Z,69.00
2023-03-21T16:11:41.036Z,69.50
2023-03-21T16:14:30.071Z,69.50
2023-03-21T16:16:59.138Z,69.70
2023-03-21T16:19:30.000Z,70.00
2023-03-21T16:21:57.144Z,70.60
2023-03-21T16:24:24.350Z,70.70
2023-03-21T16:26:52.297Z,70.90
2023-03-21T16:29:38.066Z,71.00
2023-03-21T16:32:10.709Z,71.10
2023-03-21T16:34:37.909Z,71.30
2023-03-21T16:37:05.017Z,71.20
2023-03-21T16:39:51.081Z,71.40
2023-03-21T16:42:18.301Z,71.30
2023-03-21T16:45:04.312Z,71.30
2023-03-21T16:47:31.507Z,71.50
2023-03-21T16:50:28.478Z,71.60
2023-03-21T16:52:57.033Z,71.70
2023-03-21T16:55:42.562Z,71.70
2023-03-21T16:58:14.597Z,71.70
2023-03-21T17:00:54.325Z,71.90
2023-03-21T17:03:22.057Z,71.90
2023-03-21T17:05:49.304Z,72.00
2023-03-21T17:08:18.755Z,72.00
2023-03-21T17:11:06.431Z,71.90
2023-03-21T17:13:33.452Z,71.70
2023-03-21T17:16:00.904Z,71.50
2023-03-21T17:18:27.899Z,71.50
2023-03-21T17:20:54.830Z,71.50
2023-03-21T17:23:22.811Z,71.40
2023-03-21T17:25:49.969Z,71.50
2023-03-21T17:28:17.697Z,71.50
2023-03-21T17:30:44.948Z,71.50
2023-03-21T17:33:12.022Z,71.50
2023-03-21T17:35:39.084Z,71.60
2023-03-21T17:38:11.319Z,71.60
2023-03-21T17:40:41.315Z,71.50
2023-03-21T17:43:27.590Z,71.50
2023-03-21T17:45:54.740Z,71.60
2023-03-21T17:48:22.293Z,71.40
2023-03-21T17:50:49.227Z,71.50
2023-03-21T17:53:17.447Z,71.40
2023-03-21T17:55:44.425Z,71.40
2023-03-21T17:58:14.417Z,71.40
2023-03-21T18:00:41.359Z,71.20
2023-03-21T18:03:11.143Z,71.10
2023-03-21T18:05:38.135Z,71.10
2023-03-21T18:08:11.281Z,71.10
2023-03-21T18:10:40.898Z,71.10
2023-03-21T18:13:08.277Z,71.20
2023-03-21T18:15:53.765Z,71.10
2023-03-21T18:18:21.467Z,71.10
2023-03-21T18:21:10.947Z,71.10
2023-03-21T18:23:39.273Z,71.00
2023-03-21T18:26:08.075Z,71.00
2023-03-21T18:28:40.002Z,71.00
2023-03-21T18:31:16.678Z,71.00
2023-03-21T18:33:46.941Z,71.00
2023-03-21T18:36:25.188Z,71.00
2023-03-21T18:38:53.382Z,71.10
2023-03-21T18:41:21.131Z,71.00
2023-03-21T18:44:14.251Z,71.10
2023-03-21T18:46:36.935Z,71.20
2023-03-21T18:49:33.925Z,71.10
2023-03-21T18:51:52.657Z,71.00
2023-03-21T18:54:20.606Z,71.10
2023-03-21T18:57:34.196Z,71.20
2023-03-21T18:59:39.404Z,71.20
2023-03-21T19:02:21.465Z,71.20
2023-03-21T19:05:07.150Z,71.20
2023-03-21T19:07:34.435Z,71.30
2023-03-21T19:10:21.500Z,71.40
2023-03-21T19:12:50.629Z,71.60
2023-03-21T19:15:36.774Z,71.60
2023-03-21T19:21:09.649Z,71.50
2023-03-21T19:24:11.640Z,71.40
2023-03-21T19:26:42.708Z,71.40
2023-03-21T19:29:09.969Z,71.20
2023-03-21T19:31:37.210Z,71.20
2023-03-21T19:34:04.448Z,71.20
2023-03-21T19:36:34.553Z,71.10
2023-03-21T19:39:01.894Z,71.20
2023-03-21T19:41:29.162Z,71.10
2023-03-21T19:43:59.055Z,71.00
2023-03-21T19:46:26.575Z,70.70
2023-03-21T19:48:56.464Z,70.70
2023-03-21T19:51:29.807Z,70.60
2023-03-21T19:54:03.400Z,70.50
2023-03-21T19:56:31.533Z,70.30
2023-03-21T19:58:59.144Z,70.20
2023-03-21T20:01:27.789Z,70.20
2023-03-21T20:03:55.441Z,70.40
2023-03-21T20:06:24.055Z,70.30
2023-03-21T20:11:39.748Z,69.90
2023-03-21T20:14:25.732Z,70.00
2023-03-21T20:16:55.382Z,69.90
2023-03-21T20:19:22.947Z,69.80
2023-03-21T20:21:57.997Z,69.40
2023-03-21T20:24:27.054Z,69.10
2023-03-21T20:26:54.992Z,68.90
2023-03-21T20:30:07.496Z,68.60
2023-03-21T20:32:18.109Z,68.60
2023-03-21T20:34:46.119Z,68.70
2023-03-21T20:37:13.207Z,68.50
2023-03-21T20:39:40.648Z,68.70
2023-03-21T20:42:07.572Z,68.90
2023-03-21T20:44:56.019Z,69.00
2023-03-21T20:47:40.299Z,69.20
2023-03-21T20:50:08.936Z,69.10
2023-03-21T20:53:06.308Z,69.30
2023-03-21T20:55:34.912Z,69.00
2023-03-21T20:58:03.168Z,68.70
2023-03-21T21:00:30.277Z,68.50
2023-03-21T21:03:15.991Z,68.20
2023-03-21T21:05:46.596Z,67.90
2023-03-21T21:08:32.316Z,67.60
2023-03-21T21:11:42.750Z,67.70
2023-03-21T21:14:05.576Z,67.70
2023-03-21T21:16:32.721Z,67.70
2023-03-21T21:19:18.854Z,67.70
2023-03-21T21:21:46.218Z,67.90
2023-03-21T21:24:19.397Z,67.80
2023-03-21T21:26:46.546Z,68.00
2023-03-21T21:29:16.812Z,68.20
2023-03-21T21:31:47.273Z,68.40
2023-03-21T21:34:15.675Z,68.50
2023-03-21T21:36:44.922Z,68.60
2023-03-21T21:39:18.811Z,68.70
2023-03-21T21:41:45.981Z,69.00
2023-03-21T21:44:13.098Z,69.00
2023-03-21T21:46:40.673Z,69.00
2023-03-21T21:49:07.817Z,69.00
2023-03-21T21:51:35.077Z,68.60
2023-03-21T21:54:06.027Z,68.60
2023-03-21T21:56:54.371Z,68.60
2023-03-21T21:59:22.316Z,68.50
2023-03-21T22:01:51.510Z,68.50
2023-03-21T22:04:24.837Z,68.60
2023-03-21T22:06:52.018Z,68.60
2023-03-21T22:09:22.532Z,68.60
2023-03-21T22:11:49.564Z,68.70
2023-03-21T22:14:16.830Z,68.60
2023-03-21T22:16:44.125Z,68.80
2023-03-21T22:19:11.135Z,68.90
2023-03-21T22:21:38.241Z,68.90
2023-03-21T22:24:05.584Z,68.90
2023-03-21T22:26:33.514Z,69.00
2023-03-21T22:29:01.816Z,69.10
2023-03-21T22:31:32.250Z,69.30
2023-03-21T22:34:17.709Z,69.40
2023-03-21T22:36:47.041Z,69.50
2023-03-21T22:39:14.063Z,70.50
2023-03-21T22:41:40.992Z,69.90
2023-03-21T22:44:26.871Z,70.00
2023-03-21T22:46:53.934Z,70.30
2023-03-21T22:49:21.136Z,70.30
2023-03-21T22:51:48.036Z,70.40
2023-03-21T22:54:14.914Z,70.30
2023-03-21T22:56:42.072Z,70.40
2023-03-21T22:59:08.977Z,70.30
2023-03-21T23:01:36.109Z,71.10
2023-03-21T23:04:21.929Z,70.30
2023-03-21T23:06:49.153Z,70.40
2023-03-21T23:09:17.594Z,70.30
2023-03-21T23:11:49.634Z,70.30
2023-03-21T23:14:21.112Z,70.30
2023-03-21T23:16:50.698Z,70.40
2023-03-21T23:19:28.718Z,70.40
2023-03-21T23:21:56.925Z,70.40
2023-03-21T23:24:24.475Z,70.30
2023-03-21T23:26:51.548Z,70.30
2023-03-21T23:29:21.425Z,70.20
2023-03-21T23:31:48.594Z,70.30
2023-03-21T23:34:16.046Z,70.30
2023-03-21T23:36:43.032Z,70.30
2023-03-21T23:39:12.603Z,70.30
2023-03-21T23:41:58.714Z,70.30
2023-03-21T23:44:26.498Z,70.40
2023-03-21T23:46:53.911Z,70.40
2023-03-21T23:49:20.831Z,70.40
2023-03-21T23:51:47.756Z,70.60
2023-03-21T23:54:14.974Z,70.60
2023-03-21T23:56:42.238Z,70.70
2023-03-21T23:59:09.254Z,70.80
